Old Sitka Rocks, AK

1:28 PM AKST on January 19, 2017 (GMT -0900)
MPBAD | | Change Station

Elev 0 ft 31.70 °N, 116.90 °W | Updated 13 hours ago

Overcast
Overcast
58.0 °F
Feels Like 58.0 °F
N
14.0
Wind Variable Wind from ESE

Today
High -- | Low -- °F
--% Chance of Precip.
Yesterday
High -- | Low -- °F
Precip. -- in
Pressure 29.17 in
Visibility 10.0 miles
Clouds Mostly Cloudy 4800 ft
Overcast 5500 ft
Dew Point 53 °F
Humidity 82%
Rainfall 0.33 in
Snow Depth Not available.
8:24 AM 4:02 PM
Waning Gibbous, 50% visible
METAR PASI 192153Z 00000KT 10SM BKN048 OVC055 03/M03 A2917 RMK AO2 SLP877 T00331028
Pressure 29.17 in
Visibility 10.0 miles
Clouds Mostly Cloudy 4800 ft
Overcast 5500 ft
Dew Point 53 °F
Humidity 82%
Rainfall 0.33 in
Snow Depth Not available.
8:24 AM 4:02 PM
Waning Gibbous, 50% visible
METAR PASI 192153Z 00000KT 10SM BKN048 OVC055 03/M03 A2917 RMK AO2 SLP877 T00331028

Get Your Daily Forecast Email!

Thanks for signing up!

Be on the lookout for a verification email in your inbox.

You'll start receiving the daily forecast at 8 AM.

×

10-Day Weather Forecast

Almanac

Astronomy

Jan. 19, 2017 Rise Set
Actual Time
Civil Twilight
Nautical Twilight
Astronomical Twilight
Moon
Length of Visible Light
Length of Day
Tomorrow will be .
, % of the Moon is Illuminated

Today's Extremes

State Highs State Lows

Community

WunderPhotos

Upload Photos

1,962,540 photos uploaded!

WunderBlog® & News

Nearby

Air Quality

  Air Quality AQ Index Pollutant
Not available.

Snow Depth

Station Depth Elevation

Earthquake Activity

City Distance Mag. Time & Date
Minimum magnitude displayed is 2.5.

Coastal Water Temperatures

Place Temperature

Stations

Nearby Weather Stations

Station Location Temp. Windchill Dew Point Humidity Wind Precip. Elev Updated Type
                   

Watches & Warnings

There are currently no watches in effect.